createdAt,value
2018-01-28T00:00:31.357Z,98.15
2018-01-28T00:02:58.898Z,98.29
2018-01-28T00:05:26.461Z,98.33
2018-01-28T00:07:53.997Z,98.47
2018-01-28T00:10:21.530Z,98.19
2018-01-28T00:12:49.227Z,97.80
2018-01-28T00:15:16.753Z,97.78
2018-01-28T00:17:44.291Z,97.61
2018-01-28T00:20:11.812Z,97.66
2018-01-28T00:22:39.377Z,97.60
2018-01-28T00:25:06.937Z,97.58
2018-01-28T00:27:34.450Z,97.79
2018-01-28T00:30:02.003Z,98.14
2018-01-28T00:32:29.530Z,98.32
2018-01-28T00:34:57.057Z,98.58
2018-01-28T00:37:24.555Z,98.66
2018-01-28T00:39:52.110Z,98.57
2018-01-28T00:42:19.655Z,98.37
2018-01-28T00:44:47.182Z,98.34
2018-01-28T00:47:14.715Z,98.16
2018-01-28T00:49:42.228Z,98.78
2018-01-28T00:52:09.762Z,98.98
2018-01-28T00:54:37.262Z,98.95
2018-01-28T00:57:04.796Z,99.10
2018-01-28T00:59:32.310Z,99.29
2018-01-28T01:01:59.833Z,99.13
2018-01-28T01:04:27.352Z,99.02
2018-01-28T01:06:54.896Z,99.04
2018-01-28T01:09:22.427Z,99.26
2018-01-28T01:11:49.945Z,99.34
2018-01-28T01:14:17.476Z,99.34
2018-01-28T01:16:45.000Z,99.64
2018-01-28T01:19:12.526Z,99.42
2018-01-28T01:21:40.077Z,99.09
2018-01-28T01:24:07.609Z,98.91
2018-01-28T01:26:35.133Z,99.06
2018-01-28T01:29:02.651Z,99.32
2018-01-28T01:31:30.166Z,99.46
2018-01-28T01:33:57.693Z,99.63
2018-01-28T01:36:25.212Z,99.71
2018-01-28T01:38:52.737Z,99.74
2018-01-28T01:41:20.241Z,99.78
2018-01-28T01:43:47.772Z,99.83
2018-01-28T01:46:15.291Z,99.83
2018-01-28T01:48:42.814Z,99.69
2018-01-28T01:51:10.326Z,99.43
2018-01-28T01:53:37.861Z,99.42
2018-01-28T01:56:05.372Z,99.38
2018-01-28T01:58:32.947Z,99.43
2018-01-28T02:01:00.481Z,99.44
2018-01-28T02:03:28.031Z,99.59
2018-01-28T02:05:55.552Z,99.70
2018-01-28T02:08:23.096Z,99.44
2018-01-28T02:10:50.618Z,99.16
2018-01-28T02:13:18.130Z,99.33
2018-01-28T02:15:45.669Z,99.37
2018-01-28T02:18:13.238Z,98.84
2018-01-28T02:20:40.756Z,98.85
2018-01-28T02:23:08.288Z,98.52
2018-01-28T02:25:35.828Z,98.49
2018-01-28T02:28:03.332Z,98.08
2018-01-28T02:30:30.851Z,98.00
2018-01-28T02:32:58.382Z,98.29
2018-01-28T02:35:25.892Z,98.29
2018-01-28T02:37:53.535Z,98.27
2018-01-28T02:40:21.069Z,98.40
2018-01-28T02:42:48.760Z,98.31
2018-01-28T02:45:16.276Z,98.33
2018-01-28T02:47:43.776Z,98.61
2018-01-28T02:50:11.296Z,98.79
2018-01-28T02:52:38.816Z,99.05
2018-01-28T02:55:06.331Z,99.10
2018-01-28T02:57:33.851Z,99.30
2018-01-28T03:00:01.382Z,99.23
2018-01-28T03:02:28.918Z,98.88
2018-01-28T03:04:56.447Z,99.05
2018-01-28T03:07:23.962Z,99.50
2018-01-28T03:09:51.478Z,99.97
2018-01-28T03:12:19.008Z,98.23
2018-01-28T03:14:46.525Z,98.73
2018-01-28T03:17:14.056Z,98.50
2018-01-28T03:19:41.637Z,98.21
2018-01-28T03:22:09.162Z,97.57
2018-01-28T03:24:36.701Z,96.75
2018-01-28T03:27:04.215Z,96.97
2018-01-28T03:29:31.756Z,96.10
2018-01-28T03:31:59.277Z,95.81
2018-01-28T03:34:26.790Z,96.28
2018-01-28T03:36:54.295Z,96.02
2018-01-28T03:39:21.811Z,95.99
2018-01-28T03:41:49.350Z,95.05
2018-01-28T03:44:16.865Z,93.84
2018-01-28T03:46:44.427Z,94.94
2018-01-28T03:49:11.927Z,95.05
2018-01-28T03:51:39.452Z,95.36
2018-01-28T03:54:06.971Z,94.53
2018-01-28T03:56:34.482Z,94.50
2018-01-28T03:59:01.998Z,95.15
2018-01-28T04:01:29.513Z,94.67
2018-01-28T04:03:57.056Z,94.82
2018-01-28T04:06:24.572Z,92.56
2018-01-28T04:08:52.205Z,90.68
2018-01-28T04:11:19.726Z,90.89
2018-01-28T04:13:47.263Z,92.10
2018-01-28T04:16:14.814Z,91.02
2018-01-28T04:18:42.350Z,90.58
2018-01-28T04:21:09.886Z,90.23
2018-01-28T04:23:37.461Z,90.54
2018-01-28T04:26:04.986Z,91.16
2018-01-28T04:28:32.507Z,90.69
2018-01-28T04:31:00.031Z,89.31
2018-01-28T04:33:27.545Z,90.54
2018-01-28T04:35:55.565Z,90.82
2018-01-28T04:38:23.092Z,90.53
2018-01-28T04:40:50.606Z,89.18
2018-01-28T04:43:18.130Z,88.78
2018-01-28T04:45:45.646Z,88.76
2018-01-28T04:48:13.161Z,88.19
2018-01-28T04:50:40.685Z,88.12
2018-01-28T04:53:08.191Z,86.50
2018-01-28T04:55:35.702Z,86.57
2018-01-28T04:58:03.217Z,87.09
2018-01-28T05:00:45.637Z,86.62
2018-01-28T05:03:13.141Z,86.98
2018-01-28T05:05:40.663Z,87.46
2018-01-28T05:08:08.202Z,86.39
2018-01-28T05:10:35.711Z,85.37
2018-01-28T05:13:03.282Z,86.00
2018-01-28T05:15:30.796Z,84.52
2018-01-28T05:17:58.292Z,84.29
2018-01-28T05:20:25.811Z,83.56
2018-01-28T05:22:53.306Z,83.02
2018-01-28T05:25:20.822Z,83.99
2018-01-28T05:27:48.338Z,84.15
2018-01-28T05:30:15.862Z,84.34
2018-01-28T05:32:43.460Z,84.66
2018-01-28T05:35:10.967Z,83.38
2018-01-28T05:37:38.506Z,83.04
2018-01-28T05:40:05.994Z,82.77
2018-01-28T05:42:33.747Z,82.37
2018-01-28T05:45:01.363Z,81.08
2018-01-28T05:47:28.867Z,81.60
2018-01-28T05:49:56.428Z,81.98
2018-01-28T05:52:23.963Z,80.87
2018-01-28T05:54:51.468Z,80.38
2018-01-28T05:57:18.983Z,81.39
2018-01-28T05:59:46.513Z,81.78
2018-01-28T06:02:14.032Z,80.85
2018-01-28T06:04:41.545Z,80.30
2018-01-28T06:07:09.076Z,80.59
2018-01-28T06:09:36.592Z,80.76
2018-01-28T06:12:04.126Z,80.96
2018-01-28T06:14:31.656Z,80.83
2018-01-28T06:17:00.611Z,79.80
2018-01-28T06:19:28.259Z,79.73
2018-01-28T06:21:55.768Z,79.95
2018-01-28T06:24:23.277Z,79.40
2018-01-28T06:26:50.791Z,80.41
2018-01-28T06:29:18.452Z,79.92
2018-01-28T06:31:45.966Z,79.94
2018-01-28T06:34:13.484Z,79.51
2018-01-28T06:36:40.996Z,79.08
2018-01-28T06:39:08.507Z,79.28
2018-01-28T06:41:36.007Z,79.25
2018-01-28T06:44:03.516Z,79.12
2018-01-28T06:46:31.048Z,79.49
2018-01-28T06:48:58.600Z,78.69
2018-01-28T06:51:26.119Z,79.27
2018-01-28T06:53:53.644Z,79.60
2018-01-28T06:56:22.286Z,78.87
2018-01-28T06:58:49.826Z,79.06
2018-01-28T07:01:17.327Z,78.27
2018-01-28T07:03:44.863Z,78.42
2018-01-28T07:06:12.366Z,78.75
2018-01-28T07:08:39.898Z,78.62
2018-01-28T07:11:07.388Z,78.55
2018-01-28T07:13:34.919Z,78.74
2018-01-28T07:16:02.448Z,78.74
2018-01-28T07:18:29.963Z,77.51
2018-01-28T07:20:57.492Z,78.10
2018-01-28T07:23:25.012Z,77.10
2018-01-28T07:25:52.782Z,77.39
2018-01-28T07:28:20.321Z,77.50
2018-01-28T07:30:47.847Z,76.63
2018-01-28T07:33:15.351Z,76.68
2018-01-28T07:35:42.867Z,76.55
2018-01-28T07:38:10.411Z,77.07
2018-01-28T07:40:37.984Z,76.16
2018-01-28T07:43:05.543Z,76.63
2018-01-28T07:45:33.032Z,76.38
2018-01-28T07:48:00.550Z,76.02
2018-01-28T07:50:28.068Z,76.60
2018-01-28T07:52:55.599Z,76.05
2018-01-28T07:55:23.131Z,76.06
2018-01-28T07:57:50.742Z,76.65
2018-01-28T08:00:18.281Z,74.69
2018-01-28T08:02:45.809Z,74.51
2018-01-28T08:05:13.327Z,74.86
2018-01-28T08:07:40.873Z,75.25
2018-01-28T08:10:10.203Z,75.16
2018-01-28T08:12:38.207Z,75.82
2018-01-28T08:15:05.768Z,76.02
2018-01-28T08:17:33.291Z,74.92
2018-01-28T08:20:00.817Z,75.02
2018-01-28T08:22:28.363Z,74.74
2018-01-28T08:24:55.898Z,74.50
2018-01-28T08:30:35.904Z,74.57
2018-01-28T08:33:03.442Z,74.15
2018-01-28T08:35:30.987Z,74.35
2018-01-28T08:37:58.531Z,73.72
2018-01-28T08:40:26.063Z,73.34
2018-01-28T08:42:53.597Z,73.46
2018-01-28T08:45:21.238Z,72.43
2018-01-28T08:47:48.768Z,73.35
2018-01-28T08:50:16.286Z,73.08
2018-01-28T08:52:43.803Z,72.97
2018-01-28T08:55:11.404Z,73.49
2018-01-28T08:57:38.938Z,72.65
2018-01-28T09:00:06.653Z,72.89
2018-01-28T09:02:34.181Z,72.85
2018-01-28T09:05:01.683Z,72.96
2018-01-28T09:07:29.221Z,72.72
2018-01-28T09:09:56.773Z,72.32
2018-01-28T09:12:24.305Z,71.08
2018-01-28T09:14:51.840Z,70.50
2018-01-28T09:17:19.363Z,70.18
2018-01-28T09:19:46.894Z,69.95
2018-01-28T09:22:14.434Z,70.89
2018-01-28T09:24:41.953Z,70.80
2018-01-28T09:27:09.477Z,69.41
2018-01-28T09:29:37.238Z,69.83
2018-01-28T09:32:04.768Z,69.01
2018-01-28T09:34:32.506Z,69.46
2018-01-28T09:37:00.043Z,68.99
2018-01-28T09:39:27.584Z,68.57
2018-01-28T09:41:55.391Z,68.70
2018-01-28T09:44:22.897Z,68.63
2018-01-28T09:46:50.403Z,68.76
2018-01-28T09:49:17.938Z,69.41
2018-01-28T09:51:45.472Z,67.18
2018-01-28T09:54:12.994Z,67.57
2018-01-28T09:56:40.534Z,66.29
2018-01-28T09:59:08.079Z,66.17
2018-01-28T10:01:35.643Z,66.85
2018-01-28T10:04:03.234Z,66.28
2018-01-28T10:06:30.758Z,65.61
2018-01-28T10:08:58.314Z,65.19
2018-01-28T10:11:25.834Z,64.49
2018-01-28T10:13:53.343Z,64.77
2018-01-28T10:16:20.852Z,64.31
2018-01-28T10:18:48.372Z,64.80
2018-01-28T10:21:15.877Z,63.81
2018-01-28T10:23:43.398Z,62.49
2018-01-28T10:26:10.933Z,62.61
2018-01-28T10:28:38.458Z,65.21
2018-01-28T10:31:05.987Z,64.82
2018-01-28T10:33:33.548Z,65.38
2018-01-28T10:36:01.196Z,64.44
2018-01-28T10:40:56.149Z,66.16
2018-01-28T10:43:23.698Z,65.97
2018-01-28T10:45:51.208Z,66.24
2018-01-28T10:48:18.724Z,65.50
2018-01-28T10:50:46.254Z,65.33
2018-01-28T10:53:13.779Z,66.11
2018-01-28T10:55:41.297Z,65.73
2018-01-28T10:58:08.835Z,66.49
2018-01-28T11:00:36.898Z,66.27
2018-01-28T11:03:04.413Z,65.85
2018-01-28T11:05:31.948Z,65.08
2018-01-28T11:07:59.463Z,64.93
2018-01-28T11:10:27.187Z,65.04
2018-01-28T11:12:54.686Z,66.05
2018-01-28T11:15:22.347Z,64.49
2018-01-28T11:17:49.880Z,63.43
2018-01-28T11:20:17.404Z,63.95
2018-01-28T11:22:44.937Z,64.13
2018-01-28T11:25:12.464Z,63.84
2018-01-28T11:27:40.014Z,64.07
2018-01-28T11:30:07.549Z,62.91
2018-01-28T11:32:35.091Z,63.14
2018-01-28T11:35:02.648Z,62.28
2018-01-28T11:37:30.223Z,63.08
2018-01-28T11:39:57.762Z,61.61
2018-01-28T11:42:25.302Z,62.67
2018-01-28T11:44:52.848Z,61.52
2018-01-28T11:47:20.383Z,61.30
2018-01-28T11:49:47.913Z,61.54
2018-01-28T11:52:15.463Z,61.41
2018-01-28T11:54:42.982Z,63.25
2018-01-28T11:57:10.497Z,64.74
2018-01-28T11:59:38.030Z,64.40
2018-01-28T12:02:05.543Z,66.03
2018-01-28T12:04:33.072Z,66.21
2018-01-28T12:07:00.594Z,67.36
2018-01-28T12:09:28.132Z,66.99
2018-01-28T12:11:55.653Z,66.89
2018-01-28T12:14:23.202Z,67.12
2018-01-28T12:16:50.735Z,66.81
2018-01-28T12:19:18.262Z,66.22
2018-01-28T12:21:45.793Z,65.44
2018-01-28T12:24:13.327Z,66.80
2018-01-28T12:26:40.898Z,67.30
2018-01-28T12:29:08.451Z,68.04
2018-01-28T12:31:36.014Z,65.75
2018-01-28T12:34:03.778Z,65.71
2018-01-28T12:36:31.347Z,66.07
2018-01-28T12:38:58.903Z,65.98
2018-01-28T12:41:26.509Z,66.00
2018-01-28T12:43:54.070Z,66.06
2018-01-28T12:46:21.604Z,66.01
2018-01-28T12:48:49.148Z,66.19
2018-01-28T12:51:16.684Z,66.38
2018-01-28T12:53:44.267Z,66.42
2018-01-28T12:56:11.822Z,66.37
2018-01-28T12:58:39.355Z,64.90
2018-01-28T13:01:06.908Z,64.07
2018-01-28T13:03:34.468Z,64.11
2018-01-28T13:06:02.009Z,66.26
2018-01-28T13:08:29.563Z,66.13
2018-01-28T13:10:57.101Z,66.06
2018-01-28T13:13:24.644Z,65.21
2018-01-28T13:15:52.166Z,65.41
2018-01-28T13:18:19.724Z,64.85
2018-01-28T13:20:47.294Z,66.19
2018-01-28T13:23:14.822Z,67.13
2018-01-28T13:25:42.437Z,65.42
2018-01-28T13:28:10.086Z,65.51
2018-01-28T13:30:37.629Z,67.62
2018-01-28T13:33:05.184Z,68.65
2018-01-28T13:35:32.728Z,68.90
2018-01-28T13:38:00.264Z,69.39
2018-01-28T13:40:27.789Z,70.45
2018-01-28T13:42:55.302Z,70.40
2018-01-28T13:45:22.854Z,71.00
2018-01-28T13:47:50.372Z,71.28
2018-01-28T13:50:17.898Z,70.71
2018-01-28T13:52:45.522Z,69.18
2018-01-28T13:55:13.062Z,69.21
2018-01-28T13:57:40.617Z,70.23
2018-01-28T14:00:08.282Z,69.86
2018-01-28T14:02:35.799Z,70.45
2018-01-28T14:05:03.348Z,69.71
2018-01-28T14:07:30.922Z,67.62
2018-01-28T14:09:58.461Z,67.38
2018-01-28T14:12:25.980Z,66.74
2018-01-28T14:14:53.534Z,67.46
2018-01-28T14:17:21.082Z,68.09
2018-01-28T14:19:48.584Z,68.09
2018-01-28T14:22:16.139Z,68.50
2018-01-28T14:24:43.687Z,67.90
2018-01-28T14:27:11.603Z,68.52
2018-01-28T14:29:39.128Z,68.99
2018-01-28T14:32:06.780Z,70.15
2018-01-28T14:34:34.323Z,67.80
2018-01-28T14:37:01.853Z,68.88
2018-01-28T14:39:29.404Z,68.80
2018-01-28T14:41:56.949Z,68.87
2018-01-28T14:44:24.490Z,69.19
2018-01-28T14:46:52.144Z,69.31
2018-01-28T14:49:19.850Z,70.18
2018-01-28T14:51:47.416Z,70.26
2018-01-28T14:54:14.962Z,71.15
2018-01-28T14:56:42.574Z,71.37
2018-01-28T14:59:10.132Z,71.24
2018-01-28T15:01:37.744Z,70.27
2018-01-28T15:04:05.280Z,69.67
2018-01-28T15:06:32.913Z,70.18
2018-01-28T15:09:00.443Z,70.04
2018-01-28T15:11:28.178Z,71.35
2018-01-28T15:13:55.705Z,70.97
2018-01-28T15:16:23.259Z,70.61
2018-01-28T15:18:50.875Z,71.25
2018-01-28T15:21:18.552Z,72.47
2018-01-28T15:23:46.084Z,72.55
2018-01-28T15:26:13.630Z,72.96
2018-01-28T15:28:41.200Z,73.37
2018-01-28T15:31:08.786Z,73.99
2018-01-28T15:33:36.337Z,74.00
2018-01-28T15:36:03.883Z,74.54
2018-01-28T15:38:31.431Z,74.59
2018-01-28T15:40:59.737Z,74.83
2018-01-28T15:43:27.269Z,74.84
2018-01-28T15:45:54.823Z,74.00
2018-01-28T15:48:22.494Z,73.87
2018-01-28T15:50:50.048Z,74.28
2018-01-28T15:53:17.629Z,74.96
2018-01-28T15:55:45.160Z,74.42
2018-01-28T15:58:12.838Z,74.00
2018-01-28T16:00:40.409Z,74.36
2018-01-28T16:03:07.957Z,74.52
2018-01-28T16:05:35.524Z,74.45
2018-01-28T16:08:03.088Z,74.39
2018-01-28T16:10:30.676Z,74.32
2018-01-28T16:12:58.218Z,74.39
2018-01-28T16:15:25.778Z,73.67
2018-01-28T16:17:53.359Z,74.33
2018-01-28T16:20:20.883Z,74.09
2018-01-28T16:22:48.582Z,74.19
2018-01-28T16:25:16.134Z,74.55
2018-01-28T16:27:43.660Z,74.06
2018-01-28T16:30:38.188Z,74.35
2018-01-28T16:33:06.989Z,74.56
2018-01-28T16:35:34.713Z,74.07
2018-01-28T16:38:02.415Z,74.29
2018-01-28T16:40:30.058Z,74.56
2018-01-28T16:42:57.794Z,74.62
2018-01-28T16:45:26.178Z,74.16
2018-01-28T16:47:53.836Z,73.73
2018-01-28T16:50:21.435Z,73.78
2018-01-28T16:52:49.062Z,73.94
2018-01-28T16:55:16.738Z,73.80
2018-01-28T16:57:44.324Z,74.16
2018-01-28T17:00:12.000Z,73.46
2018-01-28T17:02:39.558Z,73.33
2018-01-28T17:05:07.328Z,73.99
2018-01-28T17:07:34.920Z,74.08
2018-01-28T17:10:02.488Z,74.65
2018-01-28T17:12:30.028Z,73.96
2018-01-28T17:14:57.585Z,74.52
2018-01-28T17:17:25.347Z,75.65
2018-01-28T17:19:53.010Z,75.28
2018-01-28T17:22:21.145Z,75.81
2018-01-28T17:24:49.010Z,76.58
2018-01-28T17:27:16.792Z,76.40
2018-01-28T17:29:44.403Z,76.12
2018-01-28T17:32:12.190Z,76.23
2018-01-28T17:34:39.713Z,76.18
2018-01-28T17:37:07.601Z,76.13
2018-01-28T17:39:35.245Z,76.38
2018-01-28T17:42:02.788Z,76.52
2018-01-28T17:44:30.374Z,76.66
2018-01-28T17:46:58.150Z,76.24
2018-01-28T17:49:25.683Z,75.80
2018-01-28T17:51:53.254Z,76.65
2018-01-28T17:54:20.915Z,76.87
2018-01-28T17:56:48.685Z,77.11
2018-01-28T17:59:16.786Z,77.20
2018-01-28T18:01:44.594Z,77.04
2018-01-28T18:04:12.320Z,77.63
2018-01-28T18:06:39.934Z,77.10
2018-01-28T18:09:07.853Z,76.77
2018-01-28T18:11:35.503Z,77.31
2018-01-28T18:14:03.374Z,76.81
2018-01-28T18:16:30.967Z,76.47
2018-01-28T18:18:58.807Z,77.19
2018-01-28T18:21:26.415Z,76.52
2018-01-28T18:23:54.095Z,76.73
2018-01-28T18:26:21.753Z,76.23
2018-01-28T18:28:49.698Z,76.91
2018-01-28T18:31:17.724Z,77.14
2018-01-28T18:33:45.266Z,77.30
2018-01-28T18:36:12.830Z,77.40
2018-01-28T18:38:40.603Z,77.29
2018-01-28T18:41:08.215Z,77.45
2018-01-28T18:43:35.753Z,77.36
2018-01-28T18:46:03.606Z,76.94
2018-01-28T18:48:31.253Z,77.21
2018-01-28T18:50:58.864Z,76.83
2018-01-28T18:53:26.713Z,76.65
2018-01-28T18:55:54.288Z,76.18
2018-01-28T18:58:21.985Z,77.31
2018-01-28T19:00:49.727Z,77.16
2018-01-28T19:03:17.310Z,76.86
2018-01-28T19:05:44.991Z,76.57
2018-01-28T19:08:12.618Z,77.16
2018-01-28T19:10:40.484Z,77.45
2018-01-28T19:13:08.044Z,78.04
2018-01-28T19:15:35.719Z,78.21
2018-01-28T19:18:03.290Z,77.83
2018-01-28T19:20:30.855Z,78.04
2018-01-28T19:22:58.509Z,77.87
2018-01-28T19:25:26.184Z,77.72
2018-01-28T19:27:53.963Z,78.58
2018-01-28T19:30:21.624Z,79.18
2018-01-28T19:32:49.261Z,79.45
2018-01-28T19:35:16.833Z,79.65
2018-01-28T19:37:44.480Z,80.57
2018-01-28T19:40:12.003Z,80.86
2018-01-28T19:42:39.577Z,80.97
2018-01-28T19:45:07.273Z,81.33
2018-01-28T19:47:34.837Z,81.34
2018-01-28T19:50:02.395Z,82.17
2018-01-28T19:52:30.054Z,82.80
2018-01-28T19:54:57.743Z,82.96
2018-01-28T19:57:25.584Z,83.20
2018-01-28T19:59:53.143Z,83.90
2018-01-28T20:02:20.775Z,83.76
2018-01-28T20:04:48.463Z,84.78
2018-01-28T20:07:16.075Z,85.41
2018-01-28T20:09:43.623Z,85.36
2018-01-28T20:12:11.160Z,85.48
2018-01-28T20:14:38.688Z,85.64
2018-01-28T20:17:06.460Z,85.66
2018-01-28T20:19:34.019Z,85.79
2018-01-28T20:22:01.573Z,86.83
2018-01-28T20:24:29.149Z,87.11
2018-01-28T20:26:56.684Z,87.45
2018-01-28T20:29:24.380Z,87.37
2018-01-28T20:31:51.920Z,87.45
2018-01-28T20:34:19.629Z,86.93
2018-01-28T20:36:47.188Z,86.90
2018-01-28T20:39:14.924Z,86.46
2018-01-28T20:41:42.655Z,86.34
2018-01-28T20:44:10.418Z,85.45
2018-01-28T20:46:37.934Z,84.93
2018-01-28T20:49:05.509Z,84.74
2018-01-28T20:51:33.049Z,83.85
2018-01-28T20:54:00.599Z,83.12
2018-01-28T20:56:28.157Z,82.21
2018-01-28T20:58:55.719Z,82.53
2018-01-28T21:01:23.328Z,81.84
2018-01-28T21:03:51.784Z,81.30
2018-01-28T21:06:19.318Z,80.66
2018-01-28T21:08:46.845Z,81.16
2018-01-28T21:11:14.491Z,80.34
2018-01-28T21:13:42.029Z,79.90
2018-01-28T21:16:09.624Z,80.12
2018-01-28T21:18:37.150Z,80.18
2018-01-28T21:21:04.738Z,79.44
2018-01-28T21:23:32.338Z,79.87
2018-01-28T21:25:59.864Z,79.98
2018-01-28T21:28:27.403Z,80.18
2018-01-28T21:30:55.238Z,80.53
2018-01-28T21:33:22.764Z,79.71
2018-01-28T21:35:50.404Z,80.20
2018-01-28T21:38:17.985Z,79.79
2018-01-28T21:40:45.542Z,80.72
2018-01-28T21:43:13.165Z,79.99
2018-01-28T21:45:40.870Z,80.54
2018-01-28T21:48:08.481Z,80.03
2018-01-28T21:50:35.999Z,80.40
2018-01-28T21:53:03.580Z,80.33
2018-01-28T21:55:31.225Z,80.58
2018-01-28T21:57:59.656Z,80.42
2018-01-28T22:00:27.200Z,80.48
2018-01-28T22:02:54.828Z,80.90
2018-01-28T22:05:22.434Z,81.27
2018-01-28T22:07:50.213Z,81.05
2018-01-28T22:10:17.868Z,81.36
2018-01-28T22:12:45.404Z,81.56
2018-01-28T22:15:12.981Z,81.75
2018-01-28T22:17:40.507Z,81.79
2018-01-28T22:20:08.060Z,82.10
2018-01-28T22:22:35.865Z,80.99
2018-01-28T22:25:03.479Z,81.18
2018-01-28T22:27:31.144Z,81.53
2018-01-28T22:29:58.895Z,82.32
2018-01-28T22:32:26.688Z,82.42
2018-01-28T22:34:54.240Z,82.60
2018-01-28T22:37:21.909Z,83.27
2018-01-28T22:39:49.455Z,83.26
2018-01-28T22:42:17.049Z,83.20
2018-01-28T22:44:44.569Z,83.70
2018-01-28T22:47:12.155Z,84.49
2018-01-28T22:49:39.680Z,85.14
2018-01-28T22:52:07.323Z,85.65
2018-01-28T22:54:34.965Z,86.39
2018-01-28T22:57:02.715Z,86.54
2018-01-28T22:59:30.251Z,86.78
2018-01-28T23:01:57.819Z,86.50
2018-01-28T23:04:25.410Z,86.63
2018-01-28T23:06:53.035Z,86.91
2018-01-28T23:09:27.683Z,86.75
2018-01-28T23:11:55.348Z,87.65
2018-01-28T23:14:22.880Z,87.21
2018-01-28T23:16:50.402Z,87.38
2018-01-28T23:19:18.135Z,88.16
2018-01-28T23:21:46.039Z,88.18
2018-01-28T23:24:13.658Z,88.30
2018-01-28T23:26:41.160Z,88.58
2018-01-28T23:29:08.756Z,88.24
2018-01-28T23:31:36.394Z,88.62
2018-01-28T23:34:04.074Z,89.52
2018-01-28T23:36:31.628Z,89.84
2018-01-28T23:38:59.139Z,89.73
2018-01-28T23:41:26.694Z,89.79
2018-01-28T23:43:54.231Z,90.14
2018-01-28T23:46:21.742Z,90.15
2018-01-28T23:48:49.258Z,89.73
2018-01-28T23:51:16.853Z,89.47
2018-01-28T23:53:44.365Z,89.32
2018-01-28T23:56:11.953Z,89.19
2018-01-28T23:58:39.504Z,90.30
